Time;durP1;ratioP1;P1;durP2;ratioP2;P2;SDS_P1;SDS_P2;PMS_P1;PMS_P2;Temp;Humidity;BMP_temperature;BMP_pressure;BME280_temperature;BME280_humidity;BME280_pressure;Samples;Min_cycle;Max_cycle;Signal;HPM_P1;HPM_P2
2021/07/24 00:01:14;;;;;;;12.85;7.47;;;21.80;89.50;;;;;;5107233;28;20028;-87
2021/07/24 00:03:41;;;;;;;11.13;7.38;;;21.80;89.60;;;;;;5110368;28;20032;-87
2021/07/24 00:06:07;;;;;;;11.63;7.50;;;21.70;89.80;;;;;;5110087;28;20028;-87
2021/07/24 00:08:33;;;;;;;10.75;7.07;;;21.70;89.70;;;;;;5110285;28;20028;-87
2021/07/24 00:11:06;;;;;;;12.60;7.50;;;21.70;89.70;;;;;;5108662;28;20035;-87
2021/07/24 00:13:33;;;;;;;11.48;7.88;;;21.60;89.40;;;;;;5110412;28;20480;-87
2021/07/24 00:15:59;;;;;;;17.90;7.35;;;21.60;89.60;;;;;;5094341;28;20118;-87
2021/07/24 00:18:24;;;;;;;12.05;7.32;;;21.50;89.60;;;;;;5109043;28;20388;-87
2021/07/24 00:20:50;;;;;;;13.32;7.35;;;21.60;89.90;;;;;;5111477;28;20062;-87
2021/07/24 00:23:16;;;;;;;14.40;7.47;;;21.50;90.00;;;;;;5114285;28;20491;-86
2021/07/24 00:25:41;;;;;;;12.88;7.97;;;21.50;90.00;;;;;;5113555;28;20035;-87
2021/07/24 00:28:07;;;;;;;11.05;6.88;;;21.50;90.00;;;;;;5114024;28;20016;-87
2021/07/24 00:30:41;;;;;;;14.00;7.05;;;21.50;90.10;;;;;;5092736;28;20388;-87
2021/07/24 00:33:08;;;;;;;11.75;7.75;;;21.40;90.10;;;;;;5109232;28;20026;-87
2021/07/24 00:35:34;;;;;;;13.45;7.38;;;21.40;90.20;;;;;;5109978;28;20460;-87
2021/07/24 00:38:01;;;;;;;15.27;7.78;;;21.40;90.40;;;;;;5099558;28;20087;-87
2021/07/24 00:40:29;;;;;;;11.98;7.55;;;21.30;90.80;;;;;;5094667;28;20024;-86
2021/07/24 00:42:57;;;;;;;11.88;7.45;;;21.30;90.50;;;;;;5093283;28;20035;-86
2021/07/24 00:45:25;;;;;;;12.30;7.65;;;21.30;90.70;;;;;;5094204;28;20369;-86
2021/07/24 00:47:56;;;;;;;12.32;7.50;;;21.30;90.80;;;;;;5105568;28;20028;-86
2021/07/24 00:50:23;;;;;;;11.40;7.97;;;21.30;90.70;;;;;;5108568;28;20043;-86
2021/07/24 00:52:48;;;;;;;13.07;8.50;;;21.30;90.90;;;;;;5093523;28;20028;-87
2021/07/24 00:55:16;;;;;;;13.70;8.40;;;21.20;91.00;;;;;;5094844;28;20024;-86
2021/07/24 00:57:45;;;;;;;13.05;7.93;;;21.20;91.10;;;;;;5111649;28;20073;-87
2021/07/24 01:00:12;;;;;;;13.50;7.68;;;21.10;91.20;;;;;;5115005;28;20047;-86
2021/07/24 01:02:39;;;;;;;14.48;8.43;;;21.10;91.30;;;;;;5112449;28;20035;-87
2021/07/24 01:05:09;;;;;;;17.83;8.70;;;21.10;91.30;;;;;;5109258;28;20460;-87
2021/07/24 01:07:37;;;;;;;12.57;8.25;;;21.00;91.00;;;;;;5093103;28;20030;-87
2021/07/24 01:10:03;;;;;;;14.93;9.13;;;21.00;91.80;;;;;;5108685;28;20024;-87
2021/07/24 01:12:29;;;;;;;14.82;8.25;;;21.00;91.40;;;;;;5092898;28;20016;-87
2021/07/24 01:14:55;;;;;;;14.88;8.18;;;20.90;91.50;;;;;;5107621;28;20166;-87
2021/07/24 01:17:21;;;;;;;14.98;8.15;;;20.90;91.60;;;;;;5108657;28;20060;-87
2021/07/24 01:19:46;;;;;;;12.50;8.38;;;20.90;91.60;;;;;;5108215;28;20028;-87
2021/07/24 01:22:12;;;;;;;14.57;8.27;;;20.90;91.60;;;;;;5109137;28;20032;-87
2021/07/24 01:24:37;;;;;;;14.25;8.32;;;20.90;91.70;;;;;;5108940;28;20115;-86
2021/07/24 01:27:08;;;;;;;11.50;8.38;;;20.80;91.80;;;;;;5109684;28;20024;-87
2021/07/24 01:29:35;;;;;;;13.18;8.50;;;20.80;91.80;;;;;;5093263;28;20387;-86
2021/07/24 01:32:01;;;;;;;10.77;7.38;;;20.80;91.90;;;;;;5094031;28;20102;-87
2021/07/24 01:34:27;;;;;;;14.35;8.15;;;20.80;91.80;;;;;;5109992;28;20059;-87
2021/07/24 01:36:52;;;;;;;12.50;8.38;;;20.80;91.80;;;;;;5112415;28;20020;-87
2021/07/24 01:39:18;;;;;;;13.85;7.63;;;20.80;91.80;;;;;;5112138;28;20034;-86
2021/07/24 01:41:45;;;;;;;16.77;8.65;;;20.80;91.90;;;;;;5110448;28;20034;-87
2021/07/24 01:44:11;;;;;;;13.10;8.27;;;20.80;91.90;;;;;;5114859;28;20471;-86
2021/07/24 01:46:37;;;;;;;11.60;7.25;;;20.70;92.00;;;;;;5113071;28;20028;-87
2021/07/24 01:55:03;;;;;;;13.30;7.97;;;20.70;91.90;;;;;;5059161;28;20441;-87
2021/07/24 01:57:32;;;;;;;15.65;8.50;;;20.60;92.30;;;;;;5115182;28;20016;-87
2021/07/24 02:00:07;;;;;;;17.70;8.68;;;20.60;92.00;;;;;;5108862;28;20090;-87
2021/07/24 02:02:34;;;;;;;12.50;7.85;;;20.60;92.10;;;;;;5094526;28;20426;-87
2021/07/24 02:05:03;;;;;;;12.50;7.95;;;20.60;92.30;;;;;;5092588;28;20119;-87
2021/07/24 02:07:31;;;;;;;13.43;8.95;;;20.60;92.50;;;;;;5109479;28;20400;-87
2021/07/24 02:09:58;;;;;;;12.55;8.55;;;20.60;92.40;;;;;;5108873;28;20096;-88
2021/07/24 02:12:24;;;;;;;14.02;8.05;;;20.50;92.60;;;;;;5108601;28;20024;-87
2021/07/24 02:14:50;;;;;;;13.35;8.52;;;20.50;92.60;;;;;;5093308;28;20074;-87
2021/07/24 02:17:16;;;;;;;13.38;8.52;;;20.60;92.70;;;;;;5092494;28;20503;-87
2021/07/24 02:19:42;;;;;;;13.85;8.43;;;20.50;92.60;;;;;;5107249;28;20055;-87
2021/07/24 02:22:08;;;;;;;13.02;8.05;;;20.50;92.60;;;;;;5111332;28;20095;-87
2021/07/24 02:24:33;;;;;;;12.30;8.13;;;20.50;92.60;;;;;;5111941;28;20059;-87
2021/07/24 02:26:59;;;;;;;16.20;9.13;;;20.60;92.60;;;;;;5107716;28;20392;-87
2021/07/24 02:29:24;;;;;;;14.90;8.27;;;20.60;93.00;;;;;;5111686;28;20024;-87
2021/07/24 02:31:50;;;;;;;16.25;8.60;;;20.60;93.10;;;;;;5108276;28;20020;-86
2021/07/24 02:34:15;;;;;;;16.38;8.75;;;20.60;92.80;;;;;;5115655;22;20543;-77
2021/07/24 02:36:41;;;;;;;12.30;8.65;;;20.60;92.80;;;;;;5111947;28;20032;-75
2021/07/24 02:39:07;;;;;;;14.07;8.65;;;20.60;93.00;;;;;;5114451;28;20034;-78
2021/07/24 02:41:32;;;;;;;15.00;8.52;;;20.60;93.00;;;;;;5114837;28;20099;-78
2021/07/24 02:43:58;;;;;;;11.75;8.27;;;20.50;92.90;;;;;;5100465;28;20054;-77
2021/07/24 02:46:23;;;;;;;13.65;8.13;;;20.50;93.30;;;;;;5094545;28;20111;-77
2021/07/24 02:48:49;;;;;;;14.10;8.55;;;20.50;93.40;;;;;;5092785;28;20111;-78
2021/07/24 02:51:15;;;;;;;14.30;8.55;;;20.50;93.70;;;;;;5105563;28;20028;-77
2021/07/24 02:53:42;;;;;;;13.48;8.23;;;20.50;93.40;;;;;;5109033;28;20040;-78
2021/07/24 02:56:08;;;;;;;13.07;8.48;;;20.40;93.40;;;;;;5093705;28;20024;-78
2021/07/24 02:58:33;;;;;;;13.07;8.15;;;20.30;93.20;;;;;;5097113;28;20073;-77
2021/07/24 03:01:04;;;;;;;14.52;8.15;;;20.20;93.60;;;;;;5108102;28;20051;-78
2021/07/24 03:03:30;;;;;;;14.23;8.82;;;20.20;93.80;;;;;;5107011;28;20016;-76
2021/07/24 03:05:56;;;;;;;13.43;8.13;;;20.20;93.90;;;;;;5094622;28;20040;-76
2021/07/24 03:08:22;;;;;;;12.18;8.35;;;20.20;93.80;;;;;;5103941;28;20016;-77
2021/07/24 03:10:47;;;;;;;13.73;8.82;;;20.20;94.00;;;;;;5114482;28;20065;-78
2021/07/24 03:13:13;;;;;;;13.40;8.88;;;20.20;94.10;;;;;;5114421;28;20034;-78
2021/07/24 03:15:38;;;;;;;14.60;8.52;;;20.20;94.00;;;;;;5100315;28;20039;-76
2021/07/24 03:18:04;;;;;;;13.82;8.85;;;20.20;94.00;;;;;;5113324;28;20102;-77
2021/07/24 03:20:30;;;;;;;16.85;9.38;;;20.30;93.90;;;;;;5114022;28;20122;-77
2021/07/24 03:22:59;;;;;;;17.92;9.32;;;20.30;93.90;;;;;;5105370;28;20107;-77
2021/07/24 03:25:26;;;;;;;15.13;8.45;;;20.30;93.90;;;;;;5092901;28;20016;-77
2021/07/24 03:27:51;;;;;;;13.85;9.00;;;20.30;94.00;;;;;;5094214;28;20020;-78
2021/07/24 03:30:17;;;;;;;14.63;8.30;;;20.30;94.00;;;;;;5093504;28;20164;-77
2021/07/24 03:32:42;;;;;;;15.52;8.35;;;20.30;94.00;;;;;;5094581;28;20024;-76
2021/07/24 03:35:08;;;;;;;12.98;8.65;;;20.30;94.10;;;;;;5114114;28;20122;-77
2021/07/24 03:37:34;;;;;;;14.82;8.25;;;20.30;93.80;;;;;;5114278;28;20024;-77
2021/07/24 03:39:59;;;;;;;14.40;8.57;;;20.30;93.80;;;;;;5094086;28;20513;-77
2021/07/24 03:42:25;;;;;;;12.93;8.13;;;20.30;93.80;;;;;;5093728;28;20553;-76
2021/07/24 03:44:51;;;;;;;14.93;8.38;;;20.30;93.70;;;;;;5093086;28;20020;-77
2021/07/24 03:47:16;;;;;;;13.77;8.27;;;20.30;93.70;;;;;;5102413;28;20054;-77
2021/07/24 03:49:42;;;;;;;13.30;8.60;;;20.30;93.70;;;;;;5093049;28;20028;-77
2021/07/24 03:52:07;;;;;;;14.40;8.73;;;20.40;93.70;;;;;;5111385;28;20043;-76
2021/07/24 03:54:33;;;;;;;12.48;8.30;;;20.40;93.60;;;;;;5108145;28;20050;-77
2021/07/24 03:56:59;;;;;;;16.05;8.30;;;20.40;93.90;;;;;;5093303;28;20032;-78
2021/07/24 03:59:24;;;;;;;16.48;8.20;;;20.40;94.20;;;;;;5092009;28;20059;-77
2021/07/24 04:01:53;;;;;;;14.85;8.82;;;20.40;93.90;;;;;;5092452;28;20039;-75
2021/07/24 04:04:20;;;;;;;13.52;8.48;;;20.30;93.90;;;;;;5093249;28;20020;-78
2021/07/24 04:06:46;;;;;;;13.90;8.25;;;20.10;94.60;;;;;;5093840;28;20019;-78
2021/07/24 04:09:12;;;;;;;12.32;8.18;;;19.90;95.40;;;;;;5112338;28;20023;-76
2021/07/24 04:11:37;;;;;;;14.95;8.98;;;19.80;95.50;;;;;;5098574;28;20024;-77
2021/07/24 04:14:04;;;;;;;15.48;9.30;;;19.80;95.60;;;;;;5093332;28;20113;-77
2021/07/24 04:16:31;;;;;;;14.15;9.18;;;19.90;95.40;;;;;;5108721;28;20031;-77
2021/07/24 04:18:59;;;;;;;16.23;9.40;;;19.90;95.30;;;;;;5091748;28;20065;-78
2021/07/24 04:21:24;;;;;;;12.85;8.57;;;19.90;95.20;;;;;;5093121;28;20032;-77
2021/07/24 04:23:50;;;;;;;12.88;8.88;;;20.00;95.30;;;;;;5092722;28;20031;-78
2021/07/24 04:26:15;;;;;;;12.70;8.65;;;20.00;95.30;;;;;;5092806;28;20016;-78
2021/07/24 04:28:41;;;;;;;13.48;8.80;;;20.00;95.30;;;;;;5104090;28;20024;-78
2021/07/24 04:31:12;;;;;;;13.98;8.50;;;20.10;95.20;;;;;;5093039;28;20024;-78
2021/07/24 04:33:38;;;;;;;;;;;20.20;95.30;;;;;;5093457;28;20058;-77
2021/07/24 04:36:04;;;;;;;14.93;8.30;;;20.30;95.20;;;;;;5092761;28;19912;-78
2021/07/24 04:38:29;;;;;;;20.13;9.52;;;20.30;95.20;;;;;;5094703;28;20031;-77
2021/07/24 04:40:55;;;;;;;14.40;8.82;;;20.30;95.40;;;;;;5090719;28;20067;-77
2021/07/24 04:43:20;;;;;;;15.45;8.95;;;20.30;95.10;;;;;;5092463;28;20426;-77
2021/07/24 04:45:46;;;;;;;16.23;9.02;;;20.30;95.10;;;;;;5093082;28;20462;-78
2021/07/24 04:48:12;;;;;;;16.00;9.25;;;20.40;94.90;;;;;;5091465;28;20035;-77
2021/07/24 04:50:51;;;;;;;13.38;8.65;;;20.40;95.00;;;;;;5090633;28;20078;-77
2021/07/24 04:53:18;;;;;;;14.68;9.50;;;20.30;95.20;;;;;;5106359;28;20054;-77
2021/07/24 04:55:45;;;;;;;13.52;8.63;;;20.20;95.50;;;;;;5093554;28;20028;-77
2021/07/24 04:58:11;;;;;;;15.02;8.93;;;20.20;95.50;;;;;;5096251;28;20031;-76
2021/07/24 05:00:45;;;;;;;13.63;8.57;;;20.10;95.90;;;;;;5101796;28;20103;-77
2021/07/24 05:03:15;;;;;;;14.45;8.40;;;20.20;96.10;;;;;;5093497;28;20056;-78
2021/07/24 05:05:41;;;;;;;12.48;8.75;;;20.20;96.30;;;;;;5111022;28;20020;-78
2021/07/24 05:08:09;;;;;;;15.07;9.00;;;20.20;96.40;;;;;;5106116;28;20098;-77
2021/07/24 05:10:38;;;;;;;14.40;9.60;;;20.20;96.00;;;;;;5097395;28;20058;-77
2021/07/24 05:13:04;;;;;;;14.75;8.70;;;20.20;95.50;;;;;;5095592;28;20053;-78
2021/07/24 05:15:30;;;;;;;16.95;9.40;;;20.30;95.60;;;;;;5095125;28;20200;-77
2021/07/24 05:17:56;;;;;;;13.73;8.85;;;20.40;95.70;;;;;;5109318;28;20032;-78
2021/07/24 05:20:24;;;;;;;15.05;8.95;;;20.40;95.70;;;;;;5109549;28;20479;-78
2021/07/24 05:22:50;;;;;;;13.82;8.70;;;20.40;96.00;;;;;;5094188;28;20081;-78
2021/07/24 05:25:15;;;;;;;15.27;9.25;;;20.50;95.90;;;;;;5092233;28;20024;-78
2021/07/24 05:27:42;;;;;;;15.68;9.35;;;20.60;95.80;;;;;;5093914;28;20547;-78
2021/07/24 05:30:08;;;;;;;12.40;8.85;;;20.60;95.70;;;;;;5109161;28;20024;-77
2021/07/24 05:32:34;;;;;;;14.02;9.15;;;20.60;95.70;;;;;;5111511;28;20484;-78
2021/07/24 05:35:00;;;;;;;16.92;9.20;;;20.60;96.20;;;;;;5093598;28;20032;-78
2021/07/24 05:37:26;;;;;;;14.60;9.07;;;20.70;95.80;;;;;;5093297;28;20039;-78
2021/07/24 05:39:52;;;;;;;14.10;8.57;;;20.80;95.80;;;;;;5093107;28;20035;-78
2021/07/24 05:42:17;;;;;;;14.70;8.75;;;20.80;96.00;;;;;;5093715;28;20024;-78
2021/07/24 05:44:43;;;;;;;12.95;8.10;;;20.90;95.50;;;;;;5093900;28;20040;-78
2021/07/24 05:47:09;;;;;;;13.30;8.27;;;21.00;95.20;;;;;;5093164;28;20016;-78
2021/07/24 05:49:37;;;;;;;15.30;8.27;;;21.20;95.30;;;;;;5092235;28;20099;-78
2021/07/24 05:52:08;;;;;;;13.70;8.35;;;21.30;95.40;;;;;;5094030;28;20027;-78
2021/07/24 05:54:37;;;;;;;11.60;8.00;;;21.50;94.90;;;;;;5108638;28;20016;-78
2021/07/24 05:57:04;;;;;;;12.52;8.73;;;21.60;94.80;;;;;;5093467;28;20032;-78
2021/07/24 05:59:31;;;;;;;13.05;8.73;;;21.70;94.70;;;;;;5093676;28;20020;-78
2021/07/24 06:01:57;;;;;;;15.35;8.77;;;21.60;95.50;;;;;;5093360;28;20135;-78
2021/07/24 06:04:22;;;;;;;13.75;8.70;;;21.50;95.70;;;;;;5097604;28;20456;-78
2021/07/24 06:06:48;;;;;;;12.95;8.15;;;21.60;95.50;;;;;;5098159;28;20708;-78
2021/07/24 06:09:13;;;;;;;12.18;8.68;;;21.60;95.60;;;;;;5117579;28;20016;-78
2021/07/24 06:11:39;;;;;;;12.27;7.80;;;21.50;95.70;;;;;;5097085;28;20092;-78
2021/07/24 06:14:04;;;;;;;13.73;8.70;;;21.50;95.50;;;;;;5095251;28;20042;-78
2021/07/24 06:16:30;;;;;;;12.93;8.68;;;21.40;95.50;;;;;;5095164;28;20571;-78
2021/07/24 06:18:55;;;;;;;13.32;8.20;;;21.40;95.50;;;;;;5094458;28;20110;-78
2021/07/24 06:21:21;;;;;;;12.95;8.90;;;21.40;96.00;;;;;;5095095;28;20484;-78
2021/07/24 06:23:47;;;;;;;13.68;9.00;;;21.30;96.80;;;;;;5095224;28;20095;-78
2021/07/24 06:26:12;;;;;;;12.88;8.52;;;21.20;97.30;;;;;;5108922;28;20106;-77
2021/07/24 06:28:38;;;;;;;13.52;8.60;;;21.10;97.50;;;;;;5095484;28;20066;-78
2021/07/24 06:31:04;;;;;;;12.73;8.77;;;21.20;97.60;;;;;;5095369;28;20060;-78
2021/07/24 06:33:30;;;;;;;12.55;8.43;;;21.00;97.40;;;;;;5116632;28;20082;-77
2021/07/24 06:35:57;;;;;;;16.45;9.38;;;20.80;98.50;;;;;;5109890;28;20052;-76
2021/07/24 06:38:24;;;;;;;14.70;8.90;;;20.70;98.80;;;;;;5118617;28;20027;-77
2021/07/24 06:40:49;;;;;;;15.15;9.15;;;20.70;98.60;;;;;;5107167;28;20026;-77
2021/07/24 06:43:15;;;;;;;13.48;8.60;;;20.90;98.50;;;;;;5103062;28;20056;-78
2021/07/24 06:45:41;;;;;;;14.90;9.20;;;21.10;98.30;;;;;;5108409;28;20020;-78
2021/07/24 06:48:06;;;;;;;12.65;8.50;;;21.30;97.70;;;;;;5108106;28;20023;-78
2021/07/24 06:50:32;;;;;;;14.23;8.80;;;21.60;97.30;;;;;;5117765;28;20383;-78
2021/07/24 06:52:59;;;;;;;16.35;8.68;;;21.80;97.10;;;;;;5109846;28;20058;-78
2021/07/24 06:55:26;;;;;;;18.70;9.15;;;21.90;96.90;;;;;;5115610;28;20064;-78
2021/07/24 06:57:52;;;;;;;13.43;8.57;;;22.00;96.40;;;;;;5116382;28;20440;-78
2021/07/24 07:00:18;;;;;;;12.85;8.60;;;22.10;96.10;;;;;;5116965;28;20055;-78
2021/07/24 07:02:44;;;;;;;15.50;8.95;;;22.10;95.60;;;;;;5115276;28;20393;-78
2021/07/24 07:05:10;;;;;;;11.85;8.30;;;22.10;96.50;;;;;;5119260;28;20008;-77
2021/07/24 07:07:36;;;;;;;13.38;9.02;;;22.20;96.80;;;;;;5114542;28;20023;-78
2021/07/24 07:10:04;;;;;;;14.38;8.88;;;22.30;97.10;;;;;;5101872;28;20055;-78
2021/07/24 07:12:30;;;;;;;15.48;8.88;;;22.40;97.80;;;;;;5099451;28;20024;-78
2021/07/24 07:14:56;;;;;;;15.10;8.80;;;22.40;97.50;;;;;;5107217;28;20028;-78
2021/07/24 07:17:21;;;;;;;13.55;8.95;;;22.40;97.10;;;;;;5113972;28;20028;-78
2021/07/24 07:19:48;;;;;;;13.75;8.85;;;22.40;97.10;;;;;;5113821;28;20434;-78
2021/07/24 07:22:14;;;;;;;14.77;9.45;;;22.40;97.30;;;;;;5114396;28;20026;-78
2021/07/24 07:24:40;;;;;;;14.38;9.27;;;22.30;97.50;;;;;;5108475;28;20032;-78
2021/07/24 07:27:05;;;;;;;16.42;9.15;;;22.20;98.20;;;;;;5110712;28;20027;-78
2021/07/24 07:29:31;;;;;;;13.18;8.65;;;22.00;98.00;;;;;;5109896;28;20136;-78
2021/07/24 07:31:57;;;;;;;17.52;9.27;;;21.90;98.50;;;;;;5109720;28;20030;-78
2021/07/24 07:34:22;;;;;;;15.93;9.93;;;21.60;98.90;;;;;;5110696;28;20063;-78
2021/07/24 07:36:48;;;;;;;18.88;10.88;;;21.50;99.10;;;;;;5115382;28;20019;-78
2021/07/24 07:39:14;;;;;;;16.42;11.07;;;21.60;99.20;;;;;;5112942;28;20035;-78
2021/07/24 07:41:40;;;;;;;19.60;11.25;;;21.50;99.50;;;;;;5115986;28;20023;-78
2021/07/24 07:44:06;;;;;;;16.45;10.55;;;21.50;99.30;;;;;;5105900;28;20027;-78
2021/07/24 07:46:32;;;;;;;19.42;10.57;;;21.40;99.70;;;;;;5113157;28;20094;-78
2021/07/24 07:48:58;;;;;;;19.63;9.98;;;21.40;99.70;;;;;;5107115;28;20048;-78
2021/07/24 07:51:24;;;;;;;14.00;9.88;;;21.50;99.60;;;;;;5115662;27;20480;-78
2021/07/24 07:53:50;;;;;;;19.10;10.05;;;21.50;99.40;;;;;;5116446;28;20028;-77
2021/07/24 07:56:16;;;;;;;18.27;9.68;;;21.40;99.30;;;;;;5109744;28;20031;-78
2021/07/24 07:58:41;;;;;;;15.75;8.68;;;21.10;99.80;;;;;;5114268;28;20036;-78
2021/07/24 08:01:12;;;;;;;15.63;8.88;;;21.10;99.60;;;;;;5109029;28;20503;-78
2021/07/24 08:03:38;;;;;;;15.18;9.35;;;21.30;99.90;;;;;;5113811;28;20127;-78
2021/07/24 08:06:04;;;;;;;13.75;9.52;;;21.30;99.60;;;;;;5108462;28;20030;-78
2021/07/24 08:08:31;;;;;;;17.35;9.10;;;21.40;99.30;;;;;;5108715;28;20016;-78
2021/07/24 08:10:57;;;;;;;15.43;9.20;;;21.40;99.20;;;;;;5108104;28;20030;-78
2021/07/24 08:13:25;;;;;;;15.35;9.05;;;21.40;99.10;;;;;;5108728;28;20028;-78
2021/07/24 08:15:50;;;;;;;12.50;8.77;;;21.50;99.30;;;;;;5096466;28;20053;-78
2021/07/24 08:18:16;;;;;;;16.25;9.35;;;21.60;99.30;;;;;;5097286;28;20028;-78
2021/07/24 08:20:42;;;;;;;14.80;9.02;;;21.60;99.30;;;;;;5095300;28;20046;-78
2021/07/24 08:23:08;;;;;;;13.18;8.63;;;21.60;99.30;;;;;;5096088;28;20016;-78
2021/07/24 08:25:34;;;;;;;15.38;9.05;;;21.70;99.60;;;;;;5112687;28;20146;-78
2021/07/24 08:28:01;;;;;;;19.35;8.90;;;21.70;99.90;;;;;;5108681;28;20040;-78
2021/07/24 08:30:27;;;;;;;15.82;9.23;;;21.80;99.90;;;;;;5104397;28;20074;-78
2021/07/24 08:32:52;;;;;;;13.50;9.05;;;21.80;99.90;;;;;;5114894;28;20035;-78
2021/07/24 08:35:18;;;;;;;12.70;8.55;;;21.80;99.90;;;;;;5109402;28;20039;-78
2021/07/24 08:37:44;;;;;;;13.77;8.95;;;22.00;99.70;;;;;;5104209;28;20031;-78
2021/07/24 08:40:12;;;;;;;15.20;9.07;;;22.10;99.30;;;;;;5103494;28;20028;-78
2021/07/24 08:42:39;;;;;;;15.68;9.10;;;22.20;99.20;;;;;;5112637;28;20032;-79
2021/07/24 08:45:06;;;;;;;13.68;9.05;;;22.40;98.50;;;;;;5100179;28;20044;-78
2021/07/24 08:47:32;;;;;;;14.05;9.48;;;22.50;98.40;;;;;;5098709;28;20103;-78
2021/07/24 08:50:04;;;;;;;14.18;9.20;;;22.60;98.40;;;;;;5109873;28;20023;-78
2021/07/24 08:52:31;;;;;;;13.32;8.73;;;22.90;98.30;;;;;;5106284;28;20032;-79
2021/07/24 08:54:58;;;;;;;14.88;9.60;;;23.10;98.30;;;;;;5110676;28;20027;-78
2021/07/24 08:57:27;;;;;;;13.60;8.68;;;23.30;97.60;;;;;;5113770;28;20129;-79
2021/07/24 08:59:56;;;;;;;14.02;9.20;;;23.30;97.30;;;;;;5106314;28;20016;-79
2021/07/24 09:02:27;;;;;;;14.10;8.85;;;23.50;97.20;;;;;;5114991;28;20050;-79
2021/07/24 09:04:55;;;;;;;16.73;9.57;;;23.50;96.40;;;;;;5107037;28;20020;-79
2021/07/24 09:07:27;;;;;;;18.17;9.55;;;23.40;97.20;;;;;;5104548;28;20106;-79
2021/07/24 09:09:55;;;;;;;15.85;8.93;;;23.60;96.80;;;;;;5088762;22;20481;-83
2021/07/24 09:12:22;;;;;;;14.13;8.85;;;23.90;96.80;;;;;;5068583;28;20079;-84
2021/07/24 09:14:49;;;;;;;15.15;9.15;;;24.20;96.30;;;;;;5072505;28;20017;-82
2021/07/24 09:17:18;;;;;;;14.18;8.85;;;24.40;96.10;;;;;;5073172;28;20037;-83
2021/07/24 09:19:44;;;;;;;13.80;8.55;;;24.70;95.10;;;;;;5064743;28;20039;-83
2021/07/24 09:22:26;;;;;;;14.32;9.13;;;24.90;95.60;;;;;;5072378;28;20024;-83
2021/07/24 09:25:12;;;;;;;13.02;8.65;;;25.10;93.50;;;;;;5074254;28;20373;-83
2021/07/24 09:27:43;;;;;;;13.95;8.90;;;25.10;94.30;;;;;;5081476;28;20425;-83
2021/07/24 09:30:29;;;;;;;13.48;8.55;;;25.30;94.00;;;;;;5048212;28;20074;-83
2021/07/24 09:33:15;;;;;;;14.02;8.48;;;25.30;93.20;;;;;;5066375;28;20112;-83
2021/07/24 09:35:43;;;;;;;13.82;9.15;;;25.70;93.60;;;;;;5079784;28;20046;-83
2021/07/24 09:38:16;;;;;;;14.68;9.25;;;25.70;93.40;;;;;;5077582;28;20239;-83
2021/07/24 09:40:44;;;;;;;14.57;10.02;;;25.90;93.30;;;;;;5061467;28;20029;-84
2021/07/24 09:43:34;;;;;;;14.43;9.68;;;25.60;93.00;;;;;;5086147;28;20024;-84
2021/07/24 09:46:17;;;;;;;14.57;9.13;;;25.20;93.20;;;;;;5076930;28;20423;-83
2021/07/24 09:48:44;;;;;;;14.77;8.68;;;25.50;94.10;;;;;;5075790;28;20604;-83
2021/07/24 09:51:10;;;;;;;12.68;8.25;;;25.80;94.00;;;;;;5066421;28;20029;-83
2021/07/24 09:53:46;;;;;;;10.65;7.50;;;26.10;92.40;;;;;;5068895;28;20024;-83
2021/07/24 09:56:17;;;;;;;14.57;8.15;;;26.30;91.40;;;;;;5085720;28;20162;-83
2021/07/24 09:58:43;;;;;;;13.15;7.43;;;26.40;91.80;;;;;;5064810;28;20020;-83
2021/07/24 10:01:11;;;;;;;11.82;7.50;;;26.60;91.20;;;;;;5087099;28;20029;-83
2021/07/24 10:03:39;;;;;;;12.73;7.35;;;26.80;91.10;;;;;;5069828;28;20480;-83
2021/07/24 10:06:15;;;;;;;12.77;7.22;;;27.10;90.20;;;;;;5088256;28;20029;-83
2021/07/24 10:08:43;;;;;;;12.75;6.93;;;27.10;89.50;;;;;;5088449;28;20041;-83
2021/07/24 10:11:09;;;;;;;12.25;7.95;;;27.20;89.90;;;;;;5079391;28;20035;-83
2021/07/24 10:13:35;;;;;;;11.32;7.28;;;27.30;90.10;;;;;;5081382;28;20382;-83
2021/07/24 10:16:01;;;;;;;13.40;7.35;;;27.60;88.80;;;;;;5084001;28;20157;-83
2021/07/24 10:18:27;;;;;;;11.40;7.75;;;27.80;89.50;;;;;;5068646;28;20032;-83
2021/07/24 10:20:53;;;;;;;12.60;7.28;;;28.00;89.30;;;;;;5064544;28;20119;-83
2021/07/24 10:23:24;;;;;;;11.95;7.28;;;28.30;90.70;;;;;;5084470;28;21502;-83
2021/07/24 10:26:04;;;;;;;11.88;7.75;;;28.60;87.80;;;;;;5065125;28;20021;-84
2021/07/24 10:28:57;;;;;;;11.27;7.93;;;28.60;86.60;;;;;;5086546;28;20035;-84
2021/07/24 10:31:33;;;;;;;11.93;7.43;;;28.40;87.00;;;;;;5084247;28;20051;-83
2021/07/24 10:34:02;;;;;;;14.93;7.35;;;28.40;87.60;;;;;;5090500;28;20025;-83
2021/07/24 10:36:36;;;;;;;12.23;7.22;;;28.50;85.70;;;;;;5089176;28;20156;-83
2021/07/24 10:39:03;;;;;;;10.48;7.22;;;28.80;86.10;;;;;;5088300;28;20021;-83
2021/07/24 10:41:31;;;;;;;11.65;7.35;;;29.10;88.50;;;;;;5061233;28;20031;-83
2021/07/24 10:44:07;;;;;;;12.25;7.68;;;29.20;85.30;;;;;;5087619;28;20027;-83
2021/07/24 10:46:45;;;;;;;11.23;7.55;;;29.30;85.80;;;;;;5088638;28;20016;-82
2021/07/24 10:49:22;;;;;;;12.75;8.13;;;29.40;84.60;;;;;;5066594;28;20021;-82
2021/07/24 10:52:01;;;;;;;11.35;7.13;;;29.00;84.10;;;;;;5052075;28;20023;-83
2021/07/24 10:54:28;;;;;;;12.68;7.43;;;28.90;85.70;;;;;;5075226;28;20021;-83
2021/07/24 10:56:54;;;;;;;11.63;7.35;;;28.60;86.00;;;;;;5070811;28;20024;-83
2021/07/24 10:59:29;;;;;;;17.63;8.95;;;28.40;86.50;;;;;;5089250;28;20039;-82
2021/07/24 11:01:58;;;;;;;16.10;8.48;;;28.60;85.80;;;;;;5068842;28;20029;-82
2021/07/24 11:04:40;;;;;;;16.73;9.45;;;28.60;85.30;;;;;;5075333;28;20032;-83
2021/07/24 11:07:12;;;;;;;11.75;7.40;;;28.90;86.60;;;;;;5065942;28;20043;-82
2021/07/24 11:09:38;;;;;;;12.60;6.90;;;28.90;84.70;;;;;;5046078;28;20516;-83
2021/07/24 11:12:06;;;;;;;11.07;5.35;;;28.90;84.80;;;;;;5075714;28;20517;-83
2021/07/24 11:14:38;;;;;;;9.90;4.97;;;29.10;83.20;;;;;;5062324;28;20027;-82
2021/07/24 11:17:13;;;;;;;9.70;4.63;;;29.60;82.40;;;;;;5048413;28;20119;-83
2021/07/24 11:20:00;;;;;;;7.28;4.10;;;29.70;79.10;;;;;;5056287;28;20031;-82
2021/07/24 11:22:30;;;;;;;8.93;4.70;;;29.60;77.70;;;;;;5045731;28;20052;-83
2021/07/24 11:24:58;;;;;;;10.50;7.10;;;29.10;77.60;;;;;;5057804;28;20079;-83
2021/07/24 11:27:30;;;;;;;8.40;4.47;;;28.80;80.60;;;;;;5042743;28;20033;-83
2021/07/24 11:30:04;;;;;;;10.18;4.75;;;28.30;79.80;;;;;;5077286;28;20021;-83
2021/07/24 11:32:35;;;;;;;8.32;4.72;;;27.90;80.90;;;;;;5058873;28;20024;-83
2021/07/24 11:35:04;;;;;;;8.73;4.88;;;27.70;82.60;;;;;;5059408;28;20028;-83
2021/07/24 11:37:41;;;;;;;8.93;4.20;;;27.60;82.40;;;;;;5078450;28;20078;-83
2021/07/24 11:40:12;;;;;;;10.07;4.80;;;27.30;83.90;;;;;;5068576;28;20112;-83
2021/07/24 11:42:38;;;;;;;9.35;5.00;;;27.00;82.60;;;;;;5039742;28;20036;-83
2021/07/24 11:45:04;;;;;;;8.20;4.60;;;26.80;83.50;;;;;;5058913;28;20036;-82
2021/07/24 11:47:30;;;;;;;8.98;4.57;;;26.70;84.70;;;;;;5056799;28;20021;-84
2021/07/24 11:50:22;;;;;;;12.15;5.40;;;26.60;84.80;;;;;;5060613;28;20017;-84
2021/07/24 11:52:50;;;;;;;9.40;5.05;;;26.60;85.70;;;;;;5058254;28;20051;-82
2021/07/24 11:55:26;;;;;;;9.02;4.85;;;26.60;85.00;;;;;;5058648;28;20052;-82
2021/07/24 11:58:12;;;;;;;7.50;4.47;;;26.70;85.80;;;;;;5058840;28;20047;-83
2021/07/24 12:00:42;;;;;;;8.70;4.50;;;26.90;84.20;;;;;;5045392;28;20102;-83
2021/07/24 12:03:15;;;;;;;8.17;4.67;;;27.00;82.90;;;;;;5065322;28;20028;-83
2021/07/24 12:05:41;;;;;;;10.32;4.95;;;27.00;83.20;;;;;;5045922;28;20013;-84
2021/07/24 12:08:08;;;;;;;8.18;4.55;;;27.10;83.40;;;;;;5062646;28;20029;-86
2021/07/24 12:10:43;;;;;;;7.35;4.50;;;27.50;84.00;;;;;;5059172;28;20063;-87
2021/07/24 12:13:11;;;;;;;8.52;4.65;;;28.10;83.40;;;;;;5054812;28;20029;-87
2021/07/24 12:16:03;;;;;;;8.15;4.90;;;28.50;82.50;;;;;;5054782;28;20025;-87
2021/07/24 12:18:38;;;;;;;8.05;4.93;;;29.00;80.30;;;;;;5037523;28;20028;-87
2021/07/24 12:21:09;;;;;;;7.75;4.32;;;29.00;79.60;;;;;;5069054;28;20492;-87
2021/07/24 12:23:36;;;;;;;7.28;4.70;;;29.40;78.70;;;;;;5046191;28;20028;-89
2021/07/24 12:26:22;;;;;;;9.65;5.22;;;29.70;78.10;;;;;;5074752;28;20512;-88
2021/07/24 12:28:48;;;;;;;8.50;4.65;;;29.80;77.40;;;;;;5053984;28;20044;-87
2021/07/24 12:31:30;;;;;;;7.78;4.65;;;29.70;77.20;;;;;;5054650;28;20047;-89
2021/07/24 12:34:38;;;;;;;6.78;4.30;;;30.20;76.70;;;;;;5064268;28;20243;-89
2021/07/24 12:37:47;;;;;;;8.73;5.22;;;30.60;75.50;;;;;;5069049;28;20037;-88
2021/07/24 12:40:20;;;;;;;8.45;4.90;;;30.40;75.70;;;;;;5064607;28;20032;-87
2021/07/24 12:42:46;;;;;;;7.45;4.53;;;30.80;75.90;;;;;;5050691;28;20020;-86
2021/07/24 12:45:23;;;;;;;7.47;4.85;;;30.00;76.30;;;;;;5055369;28;20028;-86
2021/07/24 12:47:49;;;;;;;7.18;4.53;;;29.80;76.10;;;;;;5037447;28;20041;-87
2021/07/24 12:50:17;;;;;;;7.80;4.78;;;29.40;75.90;;;;;;5064812;28;20033;-87